Time;durP1;ratioP1;P1;durP2;ratioP2;P2;SDS_P1;SDS_P2;PMS_P1;PMS_P2;Temp;Humidity;BMP_temperature;BMP_pressure;BME280_temperature;BME280_humidity;BME280_pressure;Samples;Min_cycle;Max_cycle;Signal;HPM_P1;HPM_P2
2024/03/03 00:01:06;;;;;;;26.00;13.25;;;10.10;99.90;;;;;;4992881;28;20026;-72
2024/03/03 00:03:32;;;;;;;24.48;12.75;;;10.10;99.90;;;;;;4997848;28;20050;-72
2024/03/03 00:05:58;;;;;;;24.80;13.65;;;10.20;99.90;;;;;;4996948;28;20056;-71
2024/03/03 00:08:24;;;;;;;24.58;12.68;;;10.10;99.90;;;;;;4989647;28;20037;-71
2024/03/03 00:10:52;;;;;;;26.38;13.68;;;10.10;99.90;;;;;;4994937;28;20030;-71
2024/03/03 00:13:18;;;;;;;27.23;14.27;;;10.10;99.90;;;;;;4995835;28;20041;-71
2024/03/03 00:15:44;;;;;;;25.23;13.13;;;10.10;99.90;;;;;;4995942;28;20528;-71
2024/03/03 00:18:09;;;;;;;24.15;13.45;;;10.10;99.90;;;;;;4989779;28;20108;-71
2024/03/03 00:20:35;;;;;;;26.67;13.50;;;10.10;99.90;;;;;;4995546;28;20714;-71
2024/03/03 00:23:01;;;;;;;25.30;12.88;;;10.10;99.90;;;;;;4994406;28;20040;-71
2024/03/03 00:25:27;;;;;;;24.95;14.13;;;10.10;99.90;;;;;;4991782;28;20026;-71
2024/03/03 00:27:53;;;;;;;25.88;13.57;;;10.10;99.90;;;;;;4995194;28;20033;-71
2024/03/03 00:30:19;;;;;;;23.20;12.73;;;10.20;99.90;;;;;;4992971;28;20041;-71
2024/03/03 00:32:44;;;;;;;22.10;12.63;;;10.20;99.90;;;;;;4996176;28;20033;-70
2024/03/03 00:35:12;;;;;;;28.80;14.02;;;10.10;99.90;;;;;;4997217;28;20037;-71
2024/03/03 00:37:38;;;;;;;28.42;12.93;;;10.10;99.90;;;;;;4988802;28;20668;-71
2024/03/03 00:40:06;;;;;;;22.58;13.20;;;10.10;99.90;;;;;;5007183;28;20529;-71
2024/03/03 00:42:32;;;;;;;21.80;13.35;;;10.10;99.90;;;;;;4999781;28;20397;-71
2024/03/03 00:44:57;;;;;;;24.60;13.35;;;10.10;99.90;;;;;;4992383;28;20035;-72
2024/03/03 00:47:23;;;;;;;25.67;13.23;;;10.00;99.90;;;;;;4987035;28;20117;-71
2024/03/03 00:49:49;;;;;;;28.10;13.45;;;10.00;99.90;;;;;;4994895;28;20038;-71
2024/03/03 00:52:15;;;;;;;26.25;14.05;;;10.00;99.90;;;;;;5006513;28;20053;-71
2024/03/03 00:54:41;;;;;;;28.92;14.50;;;10.00;99.90;;;;;;4993106;28;20034;-71
2024/03/03 00:57:07;;;;;;;27.38;14.65;;;9.90;99.90;;;;;;4995444;28;20057;-71
2024/03/03 00:59:32;;;;;;;28.08;14.57;;;9.90;99.90;;;;;;4991477;28;20030;-71
2024/03/03 01:01:58;;;;;;;30.55;14.77;;;10.00;99.90;;;;;;4995658;28;20201;-72
2024/03/03 01:04:24;;;;;;;26.10;15.18;;;9.90;99.90;;;;;;4998499;28;20034;-71
2024/03/03 01:06:50;;;;;;;26.60;14.05;;;9.90;99.90;;;;;;4995380;28;20025;-71
2024/03/03 01:09:17;;;;;;;27.02;14.55;;;9.90;99.90;;;;;;4992072;28;20685;-71
2024/03/03 01:11:45;;;;;;;25.40;14.18;;;9.90;99.90;;;;;;4999911;28;20057;-71
2024/03/03 01:14:11;;;;;;;31.65;14.68;;;9.90;99.90;;;;;;4991536;28;20760;-71
2024/03/03 01:16:37;;;;;;;30.95;15.13;;;10.00;99.90;;;;;;4994309;28;20034;-71
2024/03/03 01:19:03;;;;;;;26.50;13.10;;;9.90;99.90;;;;;;4994823;28;20108;-70
2024/03/03 01:21:29;;;;;;;24.95;14.10;;;9.90;99.90;;;;;;4988505;28;20038;-71
2024/03/03 01:23:56;;;;;;;31.80;15.00;;;10.00;99.90;;;;;;4993229;28;20036;-71
2024/03/03 01:26:22;;;;;;;29.33;15.40;;;10.00;99.90;;;;;;4990412;28;20030;-71
2024/03/03 01:28:48;;;;;;;31.52;15.70;;;9.90;99.90;;;;;;4993901;28;20127;-71
2024/03/03 01:31:14;;;;;;;28.15;14.23;;;9.90;99.90;;;;;;4989044;28;20125;-71
2024/03/03 01:33:39;;;;;;;29.63;14.85;;;9.90;99.90;;;;;;4996736;28;20026;-71
2024/03/03 01:36:05;;;;;;;29.60;15.35;;;9.90;99.90;;;;;;4995424;28;20153;-71
2024/03/03 01:38:31;;;;;;;27.23;14.05;;;9.80;99.90;;;;;;4998511;28;20033;-71
2024/03/03 01:40:57;;;;;;;33.10;16.83;;;9.80;99.90;;;;;;4996555;28;20772;-70
2024/03/03 01:43:23;;;;;;;27.73;15.35;;;9.80;99.90;;;;;;4991166;28;20034;-71
2024/03/03 01:45:49;;;;;;;26.90;14.80;;;9.80;99.90;;;;;;4998647;28;20029;-71
2024/03/03 01:48:15;;;;;;;31.33;15.15;;;9.80;99.90;;;;;;4996825;28;20034;-71
2024/03/03 01:50:42;;;;;;;28.98;15.88;;;9.80;99.90;;;;;;4996471;28;20032;-71
2024/03/03 01:53:10;;;;;;;24.17;13.63;;;9.80;99.90;;;;;;4993574;28;20037;-71
2024/03/03 01:55:37;;;;;;;28.55;15.50;;;9.80;99.90;;;;;;5009133;28;20034;-71
2024/03/03 01:58:04;;;;;;;31.38;16.08;;;9.80;99.90;;;;;;4990556;28;20034;-71
2024/03/03 02:00:33;;;;;;;30.83;15.27;;;9.80;99.90;;;;;;4988703;28;20387;-71
2024/03/03 02:03:00;;;;;;;28.15;15.30;;;9.70;99.90;;;;;;4994280;28;20027;-71
2024/03/03 02:05:28;;;;;;;33.78;16.23;;;9.70;99.90;;;;;;4989709;28;20019;-71
2024/03/03 02:07:54;;;;;;;37.85;16.55;;;9.70;99.90;;;;;;4988015;28;20099;-71
2024/03/03 02:10:22;;;;;;;33.72;16.48;;;9.70;99.90;;;;;;4991934;28;20029;-71
2024/03/03 02:12:48;;;;;;;30.50;15.00;;;9.70;99.90;;;;;;4990042;28;20030;-71
2024/03/03 02:15:16;;;;;;;30.83;15.32;;;9.70;99.90;;;;;;4992679;28;20493;-71
2024/03/03 02:17:42;;;;;;;31.23;15.77;;;9.70;99.90;;;;;;4989067;28;20121;-72
2024/03/03 02:20:09;;;;;;;30.75;16.50;;;9.70;99.90;;;;;;4988979;28;20498;-71
2024/03/03 02:22:36;;;;;;;29.95;16.02;;;9.70;99.90;;;;;;4988800;28;20409;-71
2024/03/03 02:25:03;;;;;;;35.13;17.05;;;9.70;99.90;;;;;;4991803;28;20033;-70
2024/03/03 02:27:33;;;;;;;31.05;16.20;;;9.70;99.90;;;;;;5008982;28;20026;-71
2024/03/03 02:29:59;;;;;;;36.42;17.48;;;9.70;99.90;;;;;;4988221;28;20116;-71
2024/03/03 02:32:26;;;;;;;36.20;17.75;;;9.70;99.90;;;;;;4990768;28;20030;-71
2024/03/03 02:34:52;;;;;;;35.22;18.40;;;9.60;99.90;;;;;;4991666;28;20026;-71
2024/03/03 02:37:18;;;;;;;37.72;18.77;;;9.50;99.90;;;;;;4993837;28;20155;-72
2024/03/03 02:39:44;;;;;;;30.98;17.15;;;9.60;99.90;;;;;;4992222;28;20030;-71
2024/03/03 02:42:10;;;;;;;33.20;17.85;;;9.50;99.90;;;;;;4993883;28;20501;-72
2024/03/03 02:44:35;;;;;;;36.88;17.75;;;9.50;99.90;;;;;;4995365;28;20027;-71
2024/03/03 02:47:02;;;;;;;36.90;19.05;;;9.50;99.90;;;;;;4996728;28;20049;-71
2024/03/03 02:49:28;;;;;;;32.42;17.02;;;9.50;99.90;;;;;;4998386;28;20026;-71
2024/03/03 02:51:55;;;;;;;35.40;18.00;;;9.50;99.90;;;;;;4993245;28;20034;-71
2024/03/03 02:54:22;;;;;;;41.42;18.38;;;9.50;99.90;;;;;;4996625;28;20038;-71
2024/03/03 02:56:49;;;;;;;34.35;16.45;;;9.50;99.90;;;;;;4993078;28;20032;-71
2024/03/03 02:59:15;;;;;;;34.60;18.23;;;9.60;99.90;;;;;;4992741;28;20034;-71
2024/03/03 03:01:40;;;;;;;35.53;18.23;;;9.60;99.90;;;;;;4993073;28;20026;-71
2024/03/03 03:04:06;;;;;;;32.78;17.23;;;9.60;99.90;;;;;;4998442;28;20409;-72
2024/03/03 03:06:32;;;;;;;39.25;19.92;;;9.70;99.90;;;;;;4996517;28;20049;-71
2024/03/03 03:08:58;;;;;;;41.10;20.70;;;9.70;99.90;;;;;;4997626;28;20029;-71
2024/03/03 03:11:24;;;;;;;38.42;19.52;;;9.60;99.90;;;;;;4993063;28;20510;-71
2024/03/03 03:13:50;;;;;;;43.47;18.77;;;9.60;99.90;;;;;;4997945;28;20045;-71
2024/03/03 03:16:16;;;;;;;46.15;20.30;;;9.60;99.90;;;;;;5001268;28;20038;-71
2024/03/03 03:18:42;;;;;;;38.75;19.83;;;9.60;99.90;;;;;;4996382;28;20029;-71
2024/03/03 03:21:08;;;;;;;40.38;20.95;;;9.60;99.90;;;;;;4993171;28;20432;-71
2024/03/03 03:23:35;;;;;;;42.08;20.30;;;9.60;99.90;;;;;;4998883;28;20041;-71
2024/03/03 03:26:01;;;;;;;42.05;20.42;;;9.60;99.90;;;;;;4995726;28;20710;-71
2024/03/03 03:28:27;;;;;;;39.97;20.38;;;9.50;99.90;;;;;;4996567;28;20033;-71
2024/03/03 03:30:53;;;;;;;43.20;20.35;;;9.50;99.90;;;;;;5001075;28;20391;-70
2024/03/03 03:33:19;;;;;;;42.30;20.80;;;9.40;99.90;;;;;;4994868;28;20108;-71
2024/03/03 03:35:45;;;;;;;40.80;19.23;;;9.40;99.90;;;;;;4991269;28;20747;-71
2024/03/03 03:38:10;;;;;;;41.40;20.80;;;9.40;99.90;;;;;;4989648;28;20134;-71
2024/03/03 03:40:36;;;;;;;45.60;22.10;;;9.40;99.90;;;;;;4995087;28;20044;-71
2024/03/03 03:43:05;;;;;;;43.85;21.17;;;9.40;99.90;;;;;;4992918;28;20088;-71
2024/03/03 03:45:34;;;;;;;41.80;19.67;;;9.40;99.90;;;;;;4994127;28;20037;-71
2024/03/03 03:48:00;;;;;;;41.63;20.58;;;9.40;99.90;;;;;;4997030;28;20105;-71
2024/03/03 03:50:26;;;;;;;40.28;21.58;;;9.40;99.90;;;;;;4994128;28;20490;-71
2024/03/03 03:52:52;;;;;;;42.22;20.35;;;9.50;99.90;;;;;;5000743;28;20036;-71
2024/03/03 03:55:18;;;;;;;40.53;20.70;;;9.50;99.90;;;;;;4996035;28;20033;-71
2024/03/03 03:57:43;;;;;;;43.75;20.88;;;9.50;99.90;;;;;;4991302;28;20390;-71
2024/03/03 04:00:10;;;;;;;40.85;20.00;;;9.60;99.90;;;;;;4995007;28;20046;-71
2024/03/03 04:02:39;;;;;;;42.38;21.10;;;9.60;99.90;;;;;;4992436;28;20037;-71
2024/03/03 04:05:05;;;;;;;41.70;21.13;;;9.60;99.90;;;;;;4993065;28;20025;-70
2024/03/03 04:07:32;;;;;;;41.03;21.65;;;9.60;99.90;;;;;;4995197;28;20037;-71
2024/03/03 04:09:58;;;;;;;44.35;21.30;;;9.50;99.90;;;;;;4993963;28;20033;-70
2024/03/03 04:12:24;;;;;;;41.45;20.55;;;9.50;99.90;;;;;;4995351;28;20045;-71
2024/03/03 04:14:50;;;;;;;42.50;22.38;;;9.50;99.90;;;;;;4998778;28;20041;-71
2024/03/03 04:17:16;;;;;;;43.13;22.38;;;9.60;99.90;;;;;;4995408;28;20030;-71
2024/03/03 04:19:42;;;;;;;46.80;21.08;;;9.60;99.90;;;;;;4992867;28;20045;-71
2024/03/03 04:22:08;;;;;;;45.40;20.27;;;9.60;99.90;;;;;;4999826;28;20026;-71
2024/03/03 04:24:34;;;;;;;36.63;19.92;;;9.60;99.90;;;;;;4994198;28;20022;-71
2024/03/03 04:27:00;;;;;;;41.92;21.55;;;9.60;99.90;;;;;;4995533;28;20030;-71
2024/03/03 04:29:25;;;;;;;42.17;21.10;;;9.60;99.90;;;;;;4993772;28;20100;-71
2024/03/03 04:31:53;;;;;;;38.22;20.42;;;9.60;99.90;;;;;;4997091;28;20038;-71
2024/03/03 04:34:19;;;;;;;41.97;21.63;;;9.60;99.90;;;;;;4986325;28;20042;-71
2024/03/03 04:36:45;;;;;;;42.15;21.15;;;9.60;99.90;;;;;;4995835;28;20108;-72
2024/03/03 04:39:11;;;;;;;39.40;20.05;;;9.60;99.90;;;;;;4993568;28;20089;-71
2024/03/03 04:41:37;;;;;;;46.08;21.45;;;9.60;99.90;;;;;;4997035;28;20065;-71
2024/03/03 04:44:04;;;;;;;36.78;20.08;;;9.60;99.90;;;;;;4992457;28;20137;-71
2024/03/03 04:46:30;;;;;;;44.30;21.88;;;9.60;99.90;;;;;;4991148;28;20022;-71
2024/03/03 04:48:56;;;;;;;39.53;21.65;;;9.60;99.90;;;;;;4993249;28;20105;-71
2024/03/03 04:51:21;;;;;;;41.10;20.48;;;9.60;99.90;;;;;;4997414;28;20026;-71
2024/03/03 04:53:47;;;;;;;41.15;21.05;;;9.50;99.90;;;;;;4994064;28;20025;-71
2024/03/03 04:56:16;;;;;;;43.85;21.27;;;9.50;99.90;;;;;;4992522;28;20066;-71
2024/03/03 04:58:43;;;;;;;36.30;20.67;;;9.50;99.90;;;;;;4992214;28;20516;-71
2024/03/03 05:01:09;;;;;;;48.85;23.10;;;9.60;99.90;;;;;;4997044;28;20085;-71
2024/03/03 05:03:35;;;;;;;45.45;20.90;;;9.60;99.90;;;;;;4996027;28;20545;-72
2024/03/03 05:06:02;;;;;;;43.03;21.40;;;9.70;99.90;;;;;;4997571;28;20033;-72
2024/03/03 05:08:28;;;;;;;40.08;22.50;;;9.60;99.90;;;;;;4993670;28;20027;-72
2024/03/03 05:10:54;;;;;;;39.92;20.65;;;9.60;99.90;;;;;;4989967;28;20022;-71
2024/03/03 05:13:20;;;;;;;38.13;20.60;;;9.70;99.90;;;;;;4991689;28;20038;-71
2024/03/03 05:15:45;;;;;;;43.17;21.85;;;9.70;99.90;;;;;;4993419;28;20065;-71
2024/03/03 05:18:11;;;;;;;40.72;21.38;;;9.70;99.90;;;;;;4990653;28;20029;-71
2024/03/03 05:20:37;;;;;;;46.72;22.23;;;9.70;99.90;;;;;;4994148;28;20065;-71
2024/03/03 05:23:03;;;;;;;44.60;21.58;;;9.70;99.90;;;;;;4999183;28;20034;-71
2024/03/03 05:25:29;;;;;;;41.45;20.80;;;9.70;99.90;;;;;;4990162;28;20108;-72
2024/03/03 05:27:55;;;;;;;43.95;20.95;;;9.70;99.90;;;;;;4992783;28;20033;-71
2024/03/03 05:30:20;;;;;;;45.83;22.02;;;9.70;99.90;;;;;;4996437;28;20084;-71
2024/03/03 05:32:46;;;;;;;44.58;20.52;;;9.70;99.90;;;;;;4988119;28;20845;-71
2024/03/03 05:35:12;;;;;;;39.55;20.95;;;9.70;99.90;;;;;;4996055;28;20151;-71
2024/03/03 05:37:38;;;;;;;45.38;21.83;;;9.70;99.90;;;;;;4994337;28;20060;-71
2024/03/03 05:40:04;;;;;;;44.08;21.25;;;9.80;99.90;;;;;;4990382;28;20033;-71
2024/03/03 05:42:30;;;;;;;41.47;21.40;;;9.70;99.90;;;;;;4990776;28;20418;-71
2024/03/03 05:44:56;;;;;;;46.08;22.90;;;9.70;99.90;;;;;;4993305;28;20034;-71
2024/03/03 05:47:22;;;;;;;44.65;22.40;;;9.70;99.90;;;;;;4992981;28;20045;-71
2024/03/03 05:49:48;;;;;;;49.20;24.15;;;9.70;99.90;;;;;;4993395;28;20057;-71
2024/03/03 05:52:13;;;;;;;43.30;23.75;;;9.60;99.90;;;;;;4992914;28;20450;-71
2024/03/03 05:54:39;;;;;;;44.80;23.88;;;9.60;99.90;;;;;;4991591;28;20034;-71
2024/03/03 05:57:06;;;;;;;41.90;23.42;;;9.60;99.90;;;;;;4990982;28;20053;-71
2024/03/03 05:59:32;;;;;;;44.97;23.05;;;9.60;99.90;;;;;;4995382;28;20037;-71
2024/03/03 06:01:58;;;;;;;49.47;24.25;;;9.60;99.90;;;;;;4985963;28;20030;-71
2024/03/03 06:04:24;;;;;;;45.95;24.00;;;9.50;99.90;;;;;;4987141;28;20039;-71
2024/03/03 06:06:49;;;;;;;50.80;23.20;;;9.50;99.90;;;;;;4993663;28;20027;-71
2024/03/03 06:09:16;;;;;;;46.58;23.13;;;9.50;99.90;;;;;;4989807;28;20040;-71
2024/03/03 06:11:42;;;;;;;45.40;21.73;;;9.50;99.90;;;;;;4990428;28;20026;-71
2024/03/03 06:14:09;;;;;;;48.60;24.08;;;9.60;99.90;;;;;;4992764;28;20030;-71
2024/03/03 06:16:38;;;;;;;46.42;23.80;;;9.60;99.90;;;;;;4976015;28;20756;-75
2024/03/03 06:19:04;;;;;;;47.17;22.85;;;9.60;99.90;;;;;;4997523;28;20030;-72
2024/03/03 06:21:31;;;;;;;45.47;21.92;;;9.70;99.90;;;;;;4993843;28;20034;-71
2024/03/03 06:23:57;;;;;;;42.58;21.42;;;9.80;99.90;;;;;;4995848;28;20053;-72
2024/03/03 06:26:31;;;;;;;49.38;24.25;;;9.90;99.90;;;;;;4996965;28;20030;-72
2024/03/03 06:28:57;;;;;;;43.10;21.88;;;9.90;99.90;;;;;;4997248;28;20560;-72
2024/03/03 06:31:23;;;;;;;40.95;21.95;;;9.90;99.90;;;;;;4990977;28;20026;-71
2024/03/03 06:33:49;;;;;;;44.22;23.75;;;9.90;99.90;;;;;;5003153;28;20030;-73
2024/03/03 06:36:18;;;;;;;46.53;22.15;;;9.90;99.90;;;;;;4996955;28;20030;-72
2024/03/03 06:38:44;;;;;;;44.85;22.50;;;9.90;99.90;;;;;;4992545;28;20026;-72
2024/03/03 06:41:14;;;;;;;47.10;24.45;;;9.90;99.90;;;;;;4995859;28;21053;-72
2024/03/03 06:43:44;;;;;;;45.75;24.17;;;9.90;99.90;;;;;;4997085;28;20053;-73
2024/03/03 06:46:10;;;;;;;49.55;23.40;;;10.00;99.90;;;;;;4996118;28;20785;-72
2024/03/03 06:48:37;;;;;;;42.35;24.25;;;10.00;99.90;;;;;;4996842;28;20364;-73
2024/03/03 06:51:04;;;;;;;46.65;23.48;;;10.10;99.90;;;;;;5001354;28;20045;-72
2024/03/03 06:53:30;;;;;;;46.65;23.08;;;10.10;99.90;;;;;;4994082;28;20050;-71
2024/03/03 06:55:55;;;;;;;43.13;22.75;;;10.20;99.90;;;;;;4993412;28;20038;-72
2024/03/03 06:58:21;;;;;;;39.28;21.90;;;10.20;99.90;;;;;;4998044;28;20026;-71
2024/03/03 07:00:47;;;;;;;44.38;22.40;;;10.20;99.90;;;;;;4988191;28;20092;-72
2024/03/03 07:03:35;;;;;;;42.60;22.52;;;10.20;99.90;;;;;;5000392;28;20042;-72
2024/03/03 07:05:59;;;;;;;45.92;23.80;;;10.30;99.90;;;;;;4985584;28;20109;-72
2024/03/03 07:08:25;;;;;;;43.97;22.30;;;10.30;99.90;;;;;;4989981;28;20208;-69
2024/03/03 07:10:51;;;;;;;42.78;23.50;;;10.40;99.90;;;;;;4995287;28;20022;-72
2024/03/03 07:13:16;;;;;;;45.28;23.65;;;10.50;99.90;;;;;;4993869;28;20034;-72
2024/03/03 07:15:42;;;;;;;39.20;21.30;;;10.50;99.90;;;;;;4994207;28;20045;-72
2024/03/03 07:18:08;;;;;;;52.65;25.23;;;10.60;99.90;;;;;;4996081;28;20560;-72
2024/03/03 07:20:34;;;;;;;41.55;23.35;;;10.60;99.90;;;;;;4993621;28;20473;-72
2024/03/03 07:23:00;;;;;;;46.05;22.55;;;10.60;99.90;;;;;;4993858;28;20027;-72
2024/03/03 07:25:26;;;;;;;41.45;22.48;;;10.70;99.90;;;;;;4995779;28;20390;-72
2024/03/03 07:27:51;;;;;;;44.47;24.20;;;10.70;99.90;;;;;;4992751;28;20062;-72
2024/03/03 07:30:17;;;;;;;46.58;23.35;;;10.70;99.90;;;;;;4995692;28;20580;-72
2024/03/03 07:32:43;;;;;;;49.90;24.67;;;10.70;99.90;;;;;;4996246;28;20512;-72
2024/03/03 07:35:09;;;;;;;46.50;23.15;;;10.80;99.90;;;;;;5000512;28;20115;-72
2024/03/03 07:37:35;;;;;;;42.40;22.92;;;10.90;99.90;;;;;;4995285;28;20498;-72
2024/03/03 07:40:01;;;;;;;43.80;23.10;;;11.00;99.90;;;;;;4996403;28;20057;-72
2024/03/03 07:42:27;;;;;;;43.83;22.63;;;11.00;99.90;;;;;;4997699;28;20038;-72
2024/03/03 07:44:52;;;;;;;43.30;22.77;;;11.00;99.90;;;;;;4997414;28;20030;-72
2024/03/03 07:47:18;;;;;;;42.38;21.90;;;11.10;99.90;;;;;;4991410;28;20460;-72
2024/03/03 07:49:44;;;;;;;46.13;22.73;;;11.10;99.90;;;;;;4994395;28;20549;-72
2024/03/03 07:52:10;;;;;;;44.60;21.73;;;11.40;99.90;;;;;;4990544;28;20061;-72
2024/03/03 07:54:36;;;;;;;38.35;22.58;;;11.70;99.90;;;;;;4995543;28;20568;-71
2024/03/03 07:57:02;;;;;;;43.33;22.08;;;12.20;99.90;;;;;;4995303;28;20030;-72
2024/03/03 07:59:28;;;;;;;39.50;20.92;;;12.60;99.90;;;;;;4992810;28;20039;-72
2024/03/03 08:01:54;;;;;;;37.70;21.00;;;13.00;99.90;;;;;;4995652;28;20026;-71
2024/03/03 08:04:20;;;;;;;38.17;20.05;;;13.20;99.90;;;;;;4994041;28;20076;-72
2024/03/03 08:06:47;;;;;;;38.13;19.92;;;13.60;99.90;;;;;;4989397;28;20533;-72
2024/03/03 08:09:13;;;;;;;36.47;20.45;;;13.70;99.90;;;;;;4997569;28;20042;-72
2024/03/03 08:11:39;;;;;;;34.85;19.95;;;13.80;99.90;;;;;;4994749;28;20117;-71
2024/03/03 08:14:04;;;;;;;34.97;18.83;;;13.80;99.90;;;;;;4990104;28;21990;-71
2024/03/03 08:16:31;;;;;;;36.17;20.13;;;13.80;99.90;;;;;;4991569;28;20128;-73
2024/03/03 08:18:57;;;;;;;34.80;19.60;;;13.90;99.90;;;;;;4999419;28;20038;-73
2024/03/03 08:21:23;;;;;;;36.25;19.60;;;13.70;99.90;;;;;;4996037;28;20112;-72
2024/03/03 08:23:49;;;;;;;32.75;18.77;;;13.50;99.90;;;;;;4996510;28;20030;-73
2024/03/03 08:26:14;;;;;;;32.20;17.95;;;13.50;99.90;;;;;;4994082;28;20477;-72
2024/03/03 08:28:40;;;;;;;34.65;19.33;;;13.60;99.90;;;;;;4995940;28;20538;-78
2024/03/03 08:31:06;;;;;;;33.50;18.30;;;13.60;99.90;;;;;;4996136;28;20034;-74
2024/03/03 08:33:32;;;;;;;31.58;17.77;;;13.60;99.90;;;;;;4989538;28;20057;-68
2024/03/03 08:35:58;;;;;;;31.65;17.40;;;13.50;99.90;;;;;;4997258;28;20128;-73
2024/03/03 08:38:24;;;;;;;35.25;18.60;;;13.50;99.90;;;;;;4992128;28;20030;-73
2024/03/03 08:40:50;;;;;;;33.90;17.20;;;13.60;99.90;;;;;;4991673;28;20048;-73
2024/03/03 08:43:17;;;;;;;31.55;17.92;;;13.60;99.90;;;;;;4995501;28;20038;-68
2024/03/03 08:45:42;;;;;;;28.92;18.23;;;13.70;99.90;;;;;;4991536;28;20445;-68
2024/03/03 08:48:08;;;;;;;29.58;17.08;;;13.80;99.90;;;;;;4994191;28;20052;-68
2024/03/03 08:50:34;;;;;;;28.20;16.10;;;13.90;99.90;;;;;;4996906;28;20026;-68
2024/03/03 08:53:00;;;;;;;29.83;16.02;;;14.00;99.90;;;;;;4993250;28;20554;-68
2024/03/03 08:55:26;;;;;;;29.38;16.85;;;14.10;99.90;;;;;;4992768;28;20033;-68
2024/03/03 08:57:52;;;;;;;26.95;15.48;;;14.20;99.90;;;;;;4987229;28;20643;-74
2024/03/03 09:00:19;;;;;;;28.10;14.93;;;14.30;99.90;;;;;;4991952;28;20041;-74
2024/03/03 09:02:45;;;;;;;27.30;15.07;;;14.20;99.90;;;;;;4993607;28;20542;-74
2024/03/03 09:05:11;;;;;;;27.42;15.27;;;14.20;99.90;;;;;;4993394;28;20113;-74
2024/03/03 09:07:39;;;;;;;28.48;15.07;;;14.40;99.90;;;;;;4994580;28;20119;-74
2024/03/03 09:10:06;;;;;;;25.83;14.52;;;14.50;99.90;;;;;;4995312;28;20033;-74
2024/03/03 09:12:32;;;;;;;30.77;15.20;;;14.70;99.90;;;;;;4989262;28;20080;-74
2024/03/03 09:14:58;;;;;;;26.05;13.93;;;14.90;99.90;;;;;;4994860;28;20048;-74
2024/03/03 09:17:24;;;;;;;26.42;15.27;;;15.30;99.90;;;;;;4994774;28;20501;-73
2024/03/03 09:19:50;;;;;;;24.88;14.90;;;15.70;99.90;;;;;;4991520;28;20031;-74
2024/03/03 09:22:15;;;;;;;21.60;13.00;;;16.10;99.90;;;;;;4987119;28;20777;-73
2024/03/03 09:24:46;;;;;;;20.48;12.65;;;16.40;99.90;;;;;;4993516;28;20034;-73
2024/03/03 09:27:12;;;;;;;21.75;12.82;;;16.70;99.90;;;;;;4993035;28;20039;-74
2024/03/03 09:29:38;;;;;;;23.77;13.05;;;16.90;99.90;;;;;;4989785;28;20114;-73
2024/03/03 09:32:04;;;;;;;24.67;13.38;;;17.30;99.90;;;;;;4998101;28;20686;-73
2024/03/03 09:34:31;;;;;;;21.73;12.70;;;17.50;99.00;;;;;;4996781;28;20025;-74
2024/03/03 09:36:58;;;;;;;20.15;12.68;;;17.60;99.20;;;;;;4992166;28;20793;-73
2024/03/03 09:39:24;;;;;;;22.00;13.20;;;17.50;98.90;;;;;;4995508;28;20105;-74
2024/03/03 09:41:57;;;;;;;18.40;11.55;;;17.40;99.10;;;;;;4992200;28;20040;-74
2024/03/03 09:44:27;;;;;;;20.05;11.85;;;17.00;98.60;;;;;;4989830;28;20034;-73
2024/03/03 09:46:54;;;;;;;20.10;11.30;;;16.50;99.70;;;;;;4993828;28;20038;-74
2024/03/03 09:49:23;;;;;;;20.52;11.40;;;16.70;99.90;;;;;;4988457;28;20492;-75
2024/03/03 09:51:49;;;;;;;20.80;11.05;;;16.90;99.10;;;;;;4990530;28;20068;-74
2024/03/03 09:54:18;;;;;;;17.20;10.48;;;17.20;98.70;;;;;;4993385;28;20038;-75
2024/03/03 09:56:46;;;;;;;19.05;10.30;;;17.20;98.50;;;;;;4988581;28;20398;-75
2024/03/03 09:59:14;;;;;;;21.92;11.13;;;17.40;97.50;;;;;;4992692;28;20030;-76
2024/03/03 10:01:56;;;;;;;17.73;10.50;;;17.80;96.20;;;;;;4994414;28;20122;-75
2024/03/03 10:04:22;;;;;;;15.35;9.85;;;17.60;96.50;;;;;;4993995;28;20110;-73
2024/03/03 10:06:52;;;;;;;20.65;10.20;;;17.00;96.40;;;;;;4995541;28;20026;-75
2024/03/03 10:09:19;;;;;;;15.75;9.68;;;16.70;97.70;;;;;;4990044;28;20093;-75
2024/03/03 10:11:45;;;;;;;17.50;9.13;;;16.40;98.00;;;;;;4988984;28;20034;-74
2024/03/03 10:14:12;;;;;;;19.25;10.80;;;16.20;99.00;;;;;;4989174;28;20030;-75
2024/03/03 10:16:39;;;;;;;21.63;11.27;;;16.70;98.40;;;;;;4995772;28;20413;-74
2024/03/03 10:19:05;;;;;;;20.50;11.23;;;16.90;97.30;;;;;;4996200;28;20442;-75
2024/03/03 10:21:37;;;;;;;16.00;9.52;;;16.90;97.60;;;;;;4992268;28;20038;-75
2024/03/03 10:24:29;;;;;;;16.05;10.23;;;17.20;97.30;;;;;;4990895;28;20100;-75
2024/03/03 10:26:56;;;;;;;16.52;10.15;;;18.20;95.60;;;;;;4991536;28;20050;-76
2024/03/03 10:29:27;;;;;;;18.88;10.60;;;19.40;93.20;;;;;;4993289;28;20037;-76
2024/03/03 10:31:54;;;;;;;16.00;9.45;;;20.80;91.00;;;;;;4996836;28;20034;-76
2024/03/03 10:34:23;;;;;;;13.60;7.90;;;21.70;85.20;;;;;;4992336;28;20288;-77
2024/03/03 10:36:59;;;;;;;13.13;7.72;;;21.70;74.80;;;;;;4994196;28;20450;-77
2024/03/03 10:39:25;;;;;;;15.68;8.23;;;21.60;74.80;;;;;;4996384;28;20036;-76
2024/03/03 10:41:51;;;;;;;11.23;6.88;;;21.50;75.20;;;;;;4988367;28;20030;-76
2024/03/03 10:44:18;;;;;;;13.02;7.93;;;21.40;72.80;;;;;;4993534;28;20037;-76
2024/03/03 10:46:46;;;;;;;12.63;7.93;;;21.40;72.00;;;;;;4994019;28;20038;-77
2024/03/03 10:49:13;;;;;;;13.20;8.10;;;21.00;70.70;;;;;;4987768;28;20037;-75
2024/03/03 10:51:39;;;;;;;13.55;7.07;;;20.20;74.70;;;;;;4991746;28;20030;-76
2024/03/03 10:54:05;;;;;;;14.80;7.15;;;19.50;78.70;;;;;;4995722;28;20080;-76
2024/03/03 10:56:33;;;;;;;13.35;7.30;;;18.80;81.00;;;;;;4992504;28;20022;-76
2024/03/03 10:59:01;;;;;;;10.27;6.72;;;18.60;81.80;;;;;;4996084;28;20030;-76
2024/03/03 11:01:28;;;;;;;12.35;8.15;;;19.50;79.90;;;;;;4995129;28;20133;-77
2024/03/03 11:03:55;;;;;;;12.13;6.60;;;20.50;74.90;;;;;;4993527;28;20035;-76
2024/03/03 11:06:25;;;;;;;11.05;6.85;;;20.90;72.90;;;;;;4997567;28;20630;-76
2024/03/03 11:08:53;;;;;;;10.75;6.05;;;21.00;70.90;;;;;;4997410;28;20731;-75
2024/03/03 11:11:22;;;;;;;12.35;7.28;;;20.60;71.40;;;;;;4993713;28;20034;-73
2024/03/03 11:13:57;;;;;;;12.88;6.57;;;20.30;72.70;;;;;;4996402;28;20548;-74
2024/03/03 11:16:31;;;;;;;10.83;6.53;;;20.60;72.00;;;;;;4999183;28;20488;-76
2024/03/03 11:19:03;;;;;;;10.70;6.55;;;20.20;73.10;;;;;;4992659;28;20034;-73
2024/03/03 11:21:38;;;;;;;10.90;7.15;;;19.40;74.90;;;;;;4997947;28;20061;-73
2024/03/03 11:24:06;;;;;;;13.90;6.75;;;18.40;77.30;;;;;;4991252;28;20116;-73
2024/03/03 11:26:48;;;;;;;12.13;6.65;;;17.80;80.50;;;;;;4993048;28;20030;-73
2024/03/03 11:29:19;;;;;;;11.60;6.57;;;17.30;82.40;;;;;;4997994;28;20030;-73
2024/03/03 11:31:47;;;;;;;10.80;6.65;;;17.00;84.60;;;;;;4998579;28;20044;-73
2024/03/03 11:34:13;;;;;;;8.20;5.25;;;16.80;86.60;;;;;;4996383;28;20092;-72
2024/03/03 11:36:42;;;;;;;7.30;5.07;;;16.70;86.30;;;;;;4997146;28;20038;-73
2024/03/03 11:39:10;;;;;;;9.88;5.18;;;16.60;84.90;;;;;;4995336;28;20041;-73
2024/03/03 11:41:39;;;;;;;7.95;4.50;;;16.50;83.50;;;;;;4992646;28;20034;-73
2024/03/03 11:44:05;;;;;;;8.73;5.13;;;16.50;85.10;;;;;;4995128;28;20755;-71
2024/03/03 11:46:50;;;;;;;8.98;5.10;;;16.30;83.50;;;;;;4994882;28;20026;-74
2024/03/03 11:49:18;;;;;;;7.93;4.60;;;16.00;84.10;;;;;;4994637;28;20537;-74
2024/03/03 11:51:44;;;;;;;8.20;5.30;;;15.90;86.60;;;;;;4997095;28;20095;-77
2024/03/03 11:54:12;;;;;;;7.63;4.32;;;16.00;86.40;;;;;;4995908;28;20116;-74
2024/03/03 11:56:50;;;;;;;8.88;4.07;;;16.10;85.60;;;;;;4996393;28;20821;-74
2024/03/03 11:59:16;;;;;;;7.18;4.10;;;16.00;86.30;;;;;;4992872;28;20045;-74
2024/03/03 12:01:47;;;;;;;7.97;4.97;;;16.00;85.30;;;;;;4993228;28;20795;-73
2024/03/03 12:04:14;;;;;;;9.48;5.00;;;16.00;85.10;;;;;;4995837;28;20034;-73
2024/03/03 12:06:42;;;;;;;8.43;5.15;;;15.90;86.80;;;;;;4994413;28;20545;-73
2024/03/03 12:09:10;;;;;;;7.72;5.00;;;15.90;86.00;;;;;;4998768;28;20049;-73
2024/03/03 12:11:36;;;;;;;8.90;4.90;;;15.90;85.90;;;;;;4996874;28;20085;-73
2024/03/03 12:14:02;;;;;;;8.52;5.10;;;15.80;87.10;;;;;;4999089;28;20034;-74
2024/03/03 12:16:31;;;;;;;9.02;5.38;;;15.90;87.60;;;;;;4997686;28;20030;-74
2024/03/03 12:18:57;;;;;;;9.30;4.93;;;15.70;87.70;;;;;;4992881;28;20045;-75
2024/03/03 12:21:24;;;;;;;9.27;5.57;;;15.60;87.20;;;;;;4996206;28;20405;-72
2024/03/03 12:23:50;;;;;;;8.32;4.93;;;15.40;87.70;;;;;;4995540;28;20053;-73
2024/03/03 12:26:17;;;;;;;7.35;5.22;;;15.40;88.40;;;;;;4998964;28;20033;-73
2024/03/03 12:28:42;;;;;;;9.45;4.88;;;15.40;88.60;;;;;;4998709;28;20026;-74
2024/03/03 12:31:08;;;;;;;8.15;4.93;;;15.30;90.00;;;;;;4992407;28;20686;-75